createdAt,value
2018-11-04T00:00:32.207Z,100.00
2018-11-04T00:03:01.030Z,100.00
2018-11-04T00:05:30.102Z,100.00
2018-11-04T00:07:58.991Z,100.00
2018-11-04T00:10:27.857Z,100.00
2018-11-04T00:12:56.721Z,100.00
2018-11-04T00:15:25.616Z,100.00
2018-11-04T00:17:54.519Z,100.00
2018-11-04T00:20:23.477Z,100.00
2018-11-04T00:22:52.247Z,100.00
2018-11-04T00:25:21.078Z,100.00
2018-11-04T00:27:49.932Z,100.00
2018-11-04T00:30:18.885Z,100.00
2018-11-04T00:32:47.713Z,100.00
2018-11-04T00:35:16.646Z,100.00
2018-11-04T00:37:45.499Z,100.00
2018-11-04T00:40:14.403Z,100.00
2018-11-04T00:42:43.415Z,100.00
2018-11-04T00:45:13.152Z,100.00
2018-11-04T00:47:42.067Z,100.00
2018-11-04T00:50:13.982Z,100.00
2018-11-04T00:52:43.335Z,100.00
2018-11-04T00:55:12.665Z,100.00
2018-11-04T00:57:41.676Z,100.00
2018-11-04T01:00:15.033Z,100.00
2018-11-04T01:02:44.823Z,100.00
2018-11-04T01:05:13.752Z,100.00
2018-11-04T01:07:42.723Z,100.00
2018-11-04T01:10:12.105Z,100.00
2018-11-04T01:12:41.644Z,100.00
2018-11-04T01:15:11.769Z,100.00
2018-11-04T01:17:41.818Z,100.00
2018-11-04T01:20:13.130Z,100.00
2018-11-04T01:22:42.387Z,100.00
2018-11-04T01:25:11.217Z,100.00
2018-11-04T01:27:40.546Z,100.00
2018-11-04T01:30:12.982Z,100.00
2018-11-04T01:32:42.090Z,100.00
2018-11-04T01:35:10.950Z,100.00
2018-11-04T01:37:39.865Z,100.00
2018-11-04T01:40:09.469Z,100.00
2018-11-04T01:42:38.615Z,100.00
2018-11-04T01:45:13.528Z,100.00
2018-11-04T01:47:42.438Z,100.00
2018-11-04T01:50:14.153Z,100.00
2018-11-04T01:52:43.268Z,100.00
2018-11-04T01:55:12.602Z,100.00
2018-11-04T01:57:41.446Z,100.00
2018-11-04T02:00:16.644Z,100.00
2018-11-04T02:02:46.307Z,100.00
2018-11-04T02:05:15.528Z,100.00
2018-11-04T02:07:44.423Z,100.00
2018-11-04T02:10:14.350Z,100.00
2018-11-04T02:12:43.184Z,100.00
2018-11-04T02:15:12.828Z,100.00
2018-11-04T02:17:41.708Z,100.00
2018-11-04T02:20:11.761Z,100.00
2018-11-04T02:22:41.271Z,100.00
2018-11-04T02:25:11.903Z,100.00
2018-11-04T02:27:41.682Z,100.00
2018-11-04T02:30:12.239Z,100.00
2018-11-04T02:32:41.871Z,100.00
2018-11-04T02:35:11.112Z,100.00
2018-11-04T02:37:40.733Z,100.00
2018-11-04T02:40:10.568Z,100.00
2018-11-04T02:42:39.440Z,100.00
2018-11-04T02:45:14.227Z,100.00
2018-11-04T02:47:43.119Z,100.00
2018-11-04T02:50:12.129Z,100.00
2018-11-04T02:52:41.004Z,100.00
2018-11-04T02:55:10.040Z,100.00
2018-11-04T02:57:38.997Z,100.00
2018-11-04T03:00:11.647Z,100.00
2018-11-04T03:02:41.356Z,100.00
2018-11-04T03:05:10.985Z,100.00
2018-11-04T03:07:40.815Z,100.00
2018-11-04T03:10:10.864Z,100.00
2018-11-04T03:12:39.847Z,100.00
2018-11-04T03:15:09.096Z,100.00
2018-11-04T03:17:38.025Z,100.00
2018-11-04T03:20:07.088Z,100.00
2018-11-04T03:22:36.026Z,100.00
2018-11-04T03:25:05.677Z,100.00
2018-11-04T03:27:35.036Z,100.00
2018-11-04T03:30:04.198Z,100.00
2018-11-04T03:32:33.076Z,100.00
2018-11-04T03:35:01.951Z,100.00
2018-11-04T03:37:31.150Z,100.00
2018-11-04T03:40:00.000Z,100.00
2018-11-04T03:42:28.885Z,100.00
2018-11-04T03:44:58.011Z,100.00
2018-11-04T03:47:27.097Z,100.00
2018-11-04T03:49:55.952Z,100.00
2018-11-04T03:52:24.871Z,100.00
2018-11-04T03:54:53.753Z,100.00
2018-11-04T03:57:22.625Z,100.00
2018-11-04T03:59:51.516Z,100.00
2018-11-04T04:02:20.394Z,100.00
2018-11-04T04:04:49.433Z,100.00
2018-11-04T04:07:18.330Z,100.00
2018-11-04T04:09:47.216Z,99.99
2018-11-04T04:12:16.484Z,98.84
2018-11-04T04:14:45.549Z,98.90
2018-11-04T04:17:14.533Z,97.81
2018-11-04T04:19:43.397Z,97.48
2018-11-04T04:22:12.264Z,97.99
2018-11-04T04:24:41.126Z,98.27
2018-11-04T04:27:09.984Z,98.28
2018-11-04T04:29:38.978Z,98.98
2018-11-04T04:32:07.840Z,98.16
2018-11-04T04:34:36.773Z,98.31
2018-11-04T04:37:05.814Z,98.41
2018-11-04T04:39:34.713Z,97.98
2018-11-04T04:42:03.661Z,97.63
2018-11-04T04:44:32.561Z,98.35
2018-11-04T04:47:01.442Z,98.49
2018-11-04T04:49:30.324Z,98.92
2018-11-04T04:51:59.116Z,98.21
2018-11-04T04:54:28.102Z,99.76
2018-11-04T04:56:57.429Z,99.62
2018-11-04T04:59:26.712Z,99.16
2018-11-04T05:01:55.982Z,98.97
2018-11-04T05:04:24.809Z,98.39
2018-11-04T05:06:53.770Z,98.64
2018-11-04T05:09:22.573Z,98.61
2018-11-04T05:11:51.440Z,98.96
2018-11-04T05:14:20.266Z,100.00
2018-11-04T05:16:49.230Z,100.00
2018-11-04T05:19:18.243Z,99.61
2018-11-04T05:21:47.153Z,100.00
2018-11-04T05:24:16.069Z,100.00
2018-11-04T05:26:44.941Z,100.00
2018-11-04T05:29:13.781Z,99.73
2018-11-04T05:31:44.440Z,100.00
2018-11-04T05:34:13.600Z,100.00
2018-11-04T05:36:42.852Z,100.00
2018-11-04T05:39:11.822Z,100.00
2018-11-04T05:41:40.709Z,100.00
2018-11-04T05:44:09.653Z,100.00
2018-11-04T05:46:38.577Z,100.00
2018-11-04T05:49:07.408Z,100.00
2018-11-04T05:51:36.290Z,100.00
2018-11-04T05:54:05.476Z,99.87
2018-11-04T05:56:34.745Z,99.43
2018-11-04T05:59:03.617Z,99.66
2018-11-04T06:01:32.716Z,98.61
2018-11-04T06:04:01.560Z,98.17
2018-11-04T06:06:30.376Z,99.34
2018-11-04T06:08:59.354Z,99.73
2018-11-04T06:11:28.184Z,99.87
2018-11-04T06:13:57.059Z,100.00
2018-11-04T06:16:25.907Z,99.98
2018-11-04T06:18:54.780Z,100.00
2018-11-04T06:21:23.778Z,100.00
2018-11-04T06:23:52.679Z,100.00
2018-11-04T06:26:21.543Z,100.00
2018-11-04T06:28:50.434Z,100.00
2018-11-04T06:31:19.318Z,100.00
2018-11-04T06:33:48.596Z,100.00
2018-11-04T06:36:17.457Z,100.00
2018-11-04T06:38:46.364Z,100.00
2018-11-04T06:41:15.529Z,100.00
2018-11-04T06:43:44.537Z,100.00
2018-11-04T06:46:13.559Z,100.00
2018-11-04T06:48:42.540Z,100.00
2018-11-04T06:51:11.440Z,100.00
2018-11-04T06:53:40.322Z,100.00
2018-11-04T06:56:09.265Z,100.00
2018-11-04T06:58:38.510Z,100.00
2018-11-04T07:01:07.379Z,100.00
2018-11-04T07:03:36.248Z,100.00
2018-11-04T07:06:05.307Z,100.00
2018-11-04T07:08:34.197Z,100.00
2018-11-04T07:11:03.342Z,100.00
2018-11-04T07:13:32.208Z,100.00
2018-11-04T07:16:01.360Z,100.00
2018-11-04T07:18:30.184Z,100.00
2018-11-04T07:20:59.028Z,100.00
2018-11-04T07:23:27.981Z,100.00
2018-11-04T07:25:56.938Z,100.00
2018-11-04T07:28:25.760Z,100.00
2018-11-04T07:30:54.577Z,100.00
2018-11-04T07:33:23.480Z,100.00
2018-11-04T07:35:52.406Z,100.00
2018-11-04T07:38:21.247Z,100.00
2018-11-04T07:40:50.146Z,100.00
2018-11-04T07:43:18.961Z,100.00
2018-11-04T07:45:47.894Z,100.00
2018-11-04T07:48:16.779Z,100.00
2018-11-04T07:50:45.736Z,100.00
2018-11-04T07:53:14.638Z,100.00
2018-11-04T07:55:43.515Z,100.00
2018-11-04T07:58:12.443Z,100.00
2018-11-04T08:00:42.191Z,100.00
2018-11-04T08:03:11.343Z,100.00
2018-11-04T08:05:41.966Z,100.00
2018-11-04T08:08:12.513Z,100.00
2018-11-04T08:10:43.698Z,100.00
2018-11-04T08:13:12.773Z,100.00
2018-11-04T08:15:41.622Z,100.00
2018-11-04T08:18:11.004Z,100.00
2018-11-04T08:20:39.916Z,100.00
2018-11-04T08:23:08.812Z,100.00
2018-11-04T08:25:37.734Z,100.00
2018-11-04T08:28:07.361Z,100.00
2018-11-04T08:30:36.206Z,100.00
2018-11-04T08:33:05.378Z,100.00
2018-11-04T08:35:34.324Z,100.00
2018-11-04T08:38:03.324Z,100.00
2018-11-04T08:40:32.177Z,100.00
2018-11-04T08:43:01.056Z,100.00
2018-11-04T08:45:29.945Z,100.00
2018-11-04T08:47:58.806Z,100.00
2018-11-04T08:50:27.828Z,100.00
2018-11-04T08:52:56.731Z,100.00
2018-11-04T08:55:25.612Z,100.00
2018-11-04T08:57:54.461Z,100.00
2018-11-04T09:00:23.383Z,100.00
2018-11-04T09:02:52.258Z,100.00
2018-11-04T09:05:21.097Z,100.00
2018-11-04T09:07:49.897Z,100.00
2018-11-04T09:10:18.801Z,100.00
2018-11-04T09:12:47.921Z,100.00
2018-11-04T09:15:17.301Z,100.00
2018-11-04T09:17:46.172Z,100.00
2018-11-04T09:20:16.332Z,100.00
2018-11-04T09:22:45.343Z,100.00
2018-11-04T09:25:14.346Z,100.00
2018-11-04T09:27:43.316Z,100.00
2018-11-04T09:30:13.826Z,100.00
2018-11-04T09:32:42.758Z,100.00
2018-11-04T09:35:12.047Z,100.00
2018-11-04T09:37:40.975Z,100.00
2018-11-04T09:40:11.694Z,100.00
2018-11-04T09:42:40.607Z,100.00
2018-11-04T09:45:14.528Z,100.00
2018-11-04T09:47:43.488Z,100.00
2018-11-04T09:50:12.637Z,100.00
2018-11-04T09:52:41.747Z,100.00
2018-11-04T09:55:11.597Z,100.00
2018-11-04T09:57:40.473Z,100.00
2018-11-04T10:00:11.484Z,100.00
2018-11-04T10:02:40.734Z,100.00
2018-11-04T10:05:10.612Z,100.00
2018-11-04T10:07:40.063Z,100.00
2018-11-04T10:10:11.719Z,100.00
2018-11-04T10:12:41.693Z,100.00
2018-11-04T10:15:10.911Z,100.00
2018-11-04T10:17:40.414Z,100.00
2018-11-04T10:20:10.790Z,100.00
2018-11-04T10:22:40.132Z,100.00
2018-11-04T10:25:10.478Z,100.00
2018-11-04T10:27:39.974Z,100.00
2018-11-04T10:30:12.433Z,100.00
2018-11-04T10:32:41.293Z,100.00
2018-11-04T10:35:10.949Z,100.00
2018-11-04T10:37:40.698Z,100.00
2018-11-04T10:40:10.778Z,100.00
2018-11-04T10:42:39.687Z,100.00
2018-11-04T10:45:10.137Z,100.00
2018-11-04T10:47:39.113Z,100.00
2018-11-04T10:50:10.504Z,100.00
2018-11-04T10:52:39.515Z,100.00
2018-11-04T10:55:09.509Z,100.00
2018-11-04T10:57:38.510Z,100.00
2018-11-04T11:00:15.931Z,100.00
2018-11-04T11:02:45.547Z,100.00
2018-11-04T11:05:14.589Z,100.00
2018-11-04T11:07:43.705Z,100.00
2018-11-04T11:10:13.452Z,100.00
2018-11-04T11:12:42.286Z,100.00
2018-11-04T11:15:11.552Z,100.00
2018-11-04T11:17:40.603Z,100.00
2018-11-04T11:20:10.906Z,100.00
2018-11-04T11:22:40.195Z,100.00
2018-11-04T11:25:09.651Z,100.00
2018-11-04T11:27:38.662Z,100.00
2018-11-04T11:30:07.909Z,100.00
2018-11-04T11:32:36.724Z,100.00
2018-11-04T11:35:06.686Z,100.00
2018-11-04T11:37:35.810Z,100.00
2018-11-04T11:40:05.205Z,100.00
2018-11-04T11:42:34.017Z,100.00
2018-11-04T11:45:03.047Z,100.00
2018-11-04T11:47:31.908Z,100.00
2018-11-04T11:50:00.777Z,100.00
2018-11-04T11:52:29.765Z,100.00
2018-11-04T11:54:58.563Z,100.00
2018-11-04T11:57:27.413Z,100.00
2018-11-04T11:59:56.408Z,100.00
2018-11-04T12:02:25.286Z,100.00
2018-11-04T12:04:54.155Z,100.00
2018-11-04T12:07:23.108Z,98.30
2018-11-04T12:09:52.024Z,97.74
2018-11-04T12:12:20.898Z,98.23
2018-11-04T12:14:49.759Z,99.21
2018-11-04T12:17:18.667Z,99.57
2018-11-04T12:19:47.549Z,100.00
2018-11-04T12:22:16.742Z,100.00
2018-11-04T12:24:45.605Z,99.53
2018-11-04T12:27:14.637Z,99.67
2018-11-04T12:29:43.692Z,99.64
2018-11-04T12:32:12.556Z,99.98
2018-11-04T12:34:41.343Z,98.54
2018-11-04T12:37:10.436Z,98.26
2018-11-04T12:39:39.241Z,99.09
2018-11-04T12:42:08.296Z,99.50
2018-11-04T12:44:38.017Z,99.24
2018-11-04T12:47:07.111Z,99.04
2018-11-04T12:49:35.921Z,98.98
2018-11-04T12:52:04.973Z,99.72
2018-11-04T12:54:34.046Z,97.74
2018-11-04T12:57:02.957Z,97.27
2018-11-04T12:59:31.856Z,97.12
2018-11-04T13:02:00.802Z,97.96
2018-11-04T13:04:29.722Z,96.70
2018-11-04T13:06:58.637Z,97.99
2018-11-04T13:09:27.525Z,98.79
2018-11-04T13:11:56.376Z,98.15
2018-11-04T13:14:25.312Z,98.77
2018-11-04T13:16:54.122Z,98.62
2018-11-04T13:19:23.573Z,99.05
2018-11-04T13:21:52.521Z,98.10
2018-11-04T13:24:21.396Z,97.10
2018-11-04T13:26:50.269Z,96.39
2018-11-04T13:29:19.174Z,97.22
2018-11-04T13:31:48.130Z,97.13
2018-11-04T13:34:16.973Z,96.33
2018-11-04T13:36:45.893Z,96.17
2018-11-04T13:39:14.695Z,96.36
2018-11-04T13:41:43.512Z,97.42
2018-11-04T13:44:12.447Z,97.98
2018-11-04T13:46:41.260Z,97.86
2018-11-04T13:49:10.106Z,97.76
2018-11-04T13:51:39.019Z,97.84
2018-11-04T13:54:07.917Z,98.39
2018-11-04T13:56:36.785Z,98.27
2018-11-04T13:59:05.772Z,98.02
2018-11-04T14:01:34.771Z,97.24
2018-11-04T14:04:03.708Z,96.84
2018-11-04T14:06:32.657Z,96.48
2018-11-04T14:09:01.580Z,96.75
2018-11-04T14:11:30.443Z,96.52
2018-11-04T14:13:59.587Z,97.17
2018-11-04T14:16:28.408Z,97.73
2018-11-04T14:18:57.249Z,97.68
2018-11-04T14:21:26.253Z,97.92
2018-11-04T14:23:55.144Z,98.00
2018-11-04T14:26:23.947Z,97.80
2018-11-04T14:28:53.289Z,97.11
2018-11-04T14:31:22.188Z,97.45
2018-11-04T14:33:51.107Z,98.17
2018-11-04T14:36:19.984Z,98.67
2018-11-04T14:38:48.837Z,98.17
2018-11-04T14:41:17.726Z,98.68
2018-11-04T14:43:46.682Z,98.99
2018-11-04T14:46:16.548Z,99.66
2018-11-04T14:48:45.407Z,98.84
2018-11-04T14:51:14.267Z,99.63
2018-11-04T14:53:43.176Z,99.98
2018-11-04T14:56:12.177Z,99.89
2018-11-04T14:58:41.059Z,100.00
2018-11-04T15:01:10.013Z,100.00
2018-11-04T15:03:38.869Z,100.00
2018-11-04T15:06:07.776Z,100.00
2018-11-04T15:08:36.735Z,100.00
2018-11-04T15:11:05.892Z,100.00
2018-11-04T15:13:34.812Z,100.00
2018-11-04T15:16:03.777Z,100.00
2018-11-04T15:18:32.728Z,100.00
2018-11-04T15:21:01.813Z,100.00
2018-11-04T15:23:30.771Z,100.00
2018-11-04T15:25:59.690Z,100.00
2018-11-04T15:28:28.558Z,100.00
2018-11-04T15:30:57.473Z,100.00
2018-11-04T15:33:26.480Z,100.00
2018-11-04T15:35:55.489Z,100.00
2018-11-04T15:38:25.947Z,100.00
2018-11-04T15:40:55.362Z,100.00
2018-11-04T15:43:24.275Z,100.00
2018-11-04T15:45:53.233Z,100.00
2018-11-04T15:48:22.322Z,100.00
2018-11-04T15:50:51.204Z,100.00
2018-11-04T15:53:20.113Z,100.00
2018-11-04T15:55:49.018Z,100.00
2018-11-04T15:58:18.071Z,100.00
2018-11-04T16:00:47.261Z,100.00
2018-11-04T16:03:16.378Z,100.00
2018-11-04T16:05:45.350Z,100.00
2018-11-04T16:08:14.320Z,100.00
2018-11-04T16:10:43.201Z,100.00
2018-11-04T16:13:12.120Z,100.00
2018-11-04T16:15:41.041Z,100.00
2018-11-04T16:18:10.644Z,100.00
2018-11-04T16:20:39.590Z,100.00
2018-11-04T16:23:08.465Z,100.00
2018-11-04T16:25:37.522Z,100.00
2018-11-04T16:28:06.467Z,100.00
2018-11-04T16:30:35.567Z,100.00
2018-11-04T16:33:04.642Z,100.00
2018-11-04T16:35:33.576Z,100.00
2018-11-04T16:38:02.783Z,100.00
2018-11-04T16:40:33.271Z,100.00
2018-11-04T16:43:02.349Z,100.00
2018-11-04T16:45:31.278Z,100.00
2018-11-04T16:48:00.120Z,100.00
2018-11-04T16:50:29.147Z,100.00
2018-11-04T16:52:58.077Z,100.00
2018-11-04T16:55:27.027Z,100.00
2018-11-04T16:57:55.925Z,100.00
2018-11-04T17:00:25.093Z,100.00
2018-11-04T17:02:54.069Z,100.00
2018-11-04T17:05:23.115Z,100.00
2018-11-04T17:07:51.904Z,100.00
2018-11-04T17:10:20.772Z,100.00
2018-11-04T17:12:49.633Z,100.00
2018-11-04T17:15:18.642Z,100.00
2018-11-04T17:17:47.531Z,100.00
2018-11-04T17:20:17.657Z,100.00
2018-11-04T17:22:46.797Z,100.00
2018-11-04T17:25:15.639Z,100.00
2018-11-04T17:27:44.685Z,100.00
2018-11-04T17:30:15.688Z,100.00
2018-11-04T17:32:44.837Z,100.00
2018-11-04T17:35:14.341Z,100.00
2018-11-04T17:37:43.613Z,100.00
2018-11-04T17:40:13.502Z,100.00
2018-11-04T17:42:42.521Z,100.00
2018-11-04T17:45:13.442Z,100.00
2018-11-04T17:47:42.585Z,100.00
2018-11-04T17:50:15.753Z,100.00
2018-11-04T17:52:45.151Z,100.00
2018-11-04T17:55:14.408Z,100.00
2018-11-04T17:57:43.819Z,100.00
2018-11-04T18:00:13.947Z,100.00
2018-11-04T18:02:43.200Z,100.00
2018-11-04T18:05:12.689Z,100.00
2018-11-04T18:07:42.496Z,100.00
2018-11-04T18:10:12.426Z,100.00
2018-11-04T18:12:41.325Z,100.00
2018-11-04T18:15:11.132Z,100.00
2018-11-04T18:17:40.092Z,100.00
2018-11-04T18:20:10.221Z,100.00
2018-11-04T18:22:39.178Z,100.00
2018-11-04T18:25:09.773Z,100.00
2018-11-04T18:27:38.892Z,100.00
2018-11-04T18:30:12.761Z,100.00
2018-11-04T18:32:42.218Z,100.00
2018-11-04T18:35:11.336Z,100.00
2018-11-04T18:37:40.358Z,100.00
2018-11-04T18:40:14.581Z,100.00
2018-11-04T18:42:44.162Z,100.00
2018-11-04T18:45:14.895Z,100.00
2018-11-04T18:47:44.450Z,100.00
2018-11-04T18:50:14.397Z,100.00
2018-11-04T18:52:43.513Z,100.00
2018-11-04T18:55:12.783Z,100.00
2018-11-04T18:57:42.635Z,100.00
2018-11-04T19:00:14.069Z,100.00
2018-11-04T19:02:43.677Z,100.00
2018-11-04T19:05:12.593Z,100.00
2018-11-04T19:07:41.517Z,100.00
2018-11-04T19:10:14.280Z,100.00
2018-11-04T19:12:43.569Z,100.00
2018-11-04T19:15:12.495Z,100.00
2018-11-04T19:17:41.395Z,100.00
2018-11-04T19:20:12.294Z,100.00
2018-11-04T19:22:41.378Z,100.00
2018-11-04T19:25:11.368Z,100.00
2018-11-04T19:27:40.628Z,100.00
2018-11-04T19:30:12.020Z,100.00
2018-11-04T19:32:41.414Z,100.00
2018-11-04T19:35:11.378Z,100.00
2018-11-04T19:37:40.800Z,100.00
2018-11-04T19:40:11.289Z,100.00
2018-11-04T19:42:40.355Z,100.00
2018-11-04T19:45:14.102Z,100.00
2018-11-04T19:47:42.980Z,100.00
2018-11-04T19:50:12.805Z,100.00
2018-11-04T19:52:42.160Z,100.00
2018-11-04T19:55:11.800Z,100.00
2018-11-04T19:57:40.712Z,100.00
2018-11-04T20:00:11.171Z,100.00
2018-11-04T20:02:40.276Z,100.00
2018-11-04T20:05:10.413Z,100.00
2018-11-04T20:07:39.273Z,100.00
2018-11-04T20:10:12.699Z,100.00
2018-11-04T20:12:47.256Z,100.00
2018-11-04T20:15:16.497Z,100.00
2018-11-04T20:17:46.506Z,100.00
2018-11-04T20:20:19.105Z,100.00
2018-11-04T20:22:48.041Z,100.00
2018-11-04T20:25:22.426Z,100.00
2018-11-04T20:27:51.269Z,100.00
2018-11-04T20:30:20.284Z,100.00
2018-11-04T20:32:54.781Z,100.00
2018-11-04T20:35:23.701Z,100.00
2018-11-04T20:37:52.552Z,100.00
2018-11-04T20:40:26.869Z,100.00
2018-11-04T20:42:55.855Z,100.00
2018-11-04T20:45:25.868Z,100.00
2018-11-04T20:48:00.213Z,100.00
2018-11-04T20:50:34.784Z,100.00
2018-11-04T20:53:04.061Z,100.00
2018-11-04T20:55:38.624Z,100.00
2018-11-04T20:58:07.562Z,100.00
2018-11-04T21:00:37.056Z,100.00
2018-11-04T21:03:06.040Z,100.00
2018-11-04T21:05:34.955Z,100.00
2018-11-04T21:08:03.914Z,100.00
2018-11-04T21:10:33.525Z,100.00
2018-11-04T21:13:02.460Z,100.00
2018-11-04T21:15:31.503Z,100.00
2018-11-04T21:18:00.360Z,100.00
2018-11-04T21:20:29.160Z,100.00
2018-11-04T21:22:58.026Z,100.00
2018-11-04T21:25:27.098Z,100.00
2018-11-04T21:27:56.001Z,100.00
2018-11-04T21:30:24.819Z,100.00
2018-11-04T21:32:53.696Z,100.00
2018-11-04T21:35:22.520Z,100.00
2018-11-04T21:37:51.427Z,100.00
2018-11-04T21:40:20.379Z,100.00
2018-11-04T21:42:49.631Z,100.00
2018-11-04T21:45:23.079Z,100.00
2018-11-04T21:47:51.996Z,100.00
2018-11-04T21:50:20.977Z,100.00
2018-11-04T21:52:49.881Z,100.00
2018-11-04T21:55:18.869Z,100.00
2018-11-04T21:57:48.167Z,100.00
2018-11-04T22:00:17.689Z,100.00
2018-11-04T22:02:46.887Z,100.00
2018-11-04T22:05:15.607Z,100.00
2018-11-04T22:07:44.499Z,100.00
2018-11-04T22:10:14.669Z,100.00
2018-11-04T22:12:43.853Z,100.00
2018-11-04T22:15:12.837Z,100.00
2018-11-04T22:17:42.063Z,100.00
2018-11-04T22:20:12.216Z,100.00
2018-11-04T22:22:41.044Z,100.00
2018-11-04T22:25:10.728Z,100.00
2018-11-04T22:27:39.626Z,100.00
2018-11-04T22:30:10.278Z,100.00
2018-11-04T22:32:39.348Z,100.00
2018-11-04T22:35:10.174Z,100.00
2018-11-04T22:37:39.189Z,100.00
2018-11-04T22:40:10.265Z,100.00
2018-11-04T22:42:39.769Z,100.00
2018-11-04T22:45:14.617Z,100.00
2018-11-04T22:47:43.474Z,100.00
2018-11-04T22:50:14.016Z,100.00
2018-11-04T22:52:43.586Z,100.00
2018-11-04T22:55:13.661Z,100.00
2018-11-04T22:57:43.076Z,100.00
2018-11-04T23:00:18.239Z,100.00
2018-11-04T23:02:48.929Z,100.00
2018-11-04T23:05:23.896Z,100.00
2018-11-04T23:07:52.761Z,100.00
2018-11-04T23:10:21.658Z,100.00
2018-11-04T23:12:50.587Z,100.00
2018-11-04T23:15:19.530Z,100.00
2018-11-04T23:17:48.370Z,100.00
2018-11-04T23:20:17.408Z,100.00
2018-11-04T23:22:46.260Z,100.00
2018-11-04T23:25:15.501Z,100.00
2018-11-04T23:27:44.493Z,100.00
2018-11-04T23:30:14.837Z,100.00
2018-11-04T23:32:44.195Z,100.00
2018-11-04T23:35:13.146Z,100.00
2018-11-04T23:37:42.851Z,100.00
2018-11-04T23:40:12.514Z,100.00
2018-11-04T23:42:41.454Z,100.00
2018-11-04T23:45:14.645Z,100.00
2018-11-04T23:47:44.066Z,100.00
2018-11-04T23:50:14.271Z,100.00
2018-11-04T23:52:43.599Z,100.00
2018-11-04T23:55:13.812Z,100.00
2018-11-04T23:57:42.813Z,100.00
